sensor_id;sensor_type;location;lat;lon;timestamp;pressure;altitude;pressure_sealevel;temperature;humidity
68988;BME280;56038;46.080;11.116;2022-12-18T00:01:56;100536.19;;;0.99;75.13
68988;BME280;56038;46.080;11.116;2022-12-18T00:06:59;100534.50;;;0.99;75.15
68988;BME280;56038;46.080;11.116;2022-12-18T00:12:01;100534.47;;;0.98;75.25
68988;BME280;56038;46.080;11.116;2022-12-18T00:17:02;100538.75;;;0.97;75.16
68988;BME280;56038;46.080;11.116;2022-12-18T00:22:05;100545.56;;;0.95;75.56
68988;BME280;56038;46.080;11.116;2022-12-18T00:27:07;100547.22;;;0.93;75.57
68988;BME280;56038;46.080;11.116;2022-12-18T00:32:09;100556.66;;;0.94;75.33
68988;BME280;56038;46.080;11.116;2022-12-18T00:37:12;100562.66;;;0.93;75.84
68988;BME280;56038;46.080;11.116;2022-12-18T00:42:14;100572.81;;;0.85;75.05
68988;BME280;56038;46.080;11.116;2022-12-18T00:47:33;100583.03;;;0.81;75.47
68988;BME280;56038;46.080;11.116;2022-12-18T00:52:42;100586.44;;;0.80;75.46
68988;BME280;56038;46.080;11.116;2022-12-18T00:57:44;100594.06;;;0.77;75.53
68988;BME280;56038;46.080;11.116;2022-12-18T01:02:45;100601.75;;;0.74;75.27
68988;BME280;56038;46.080;11.116;2022-12-18T01:07:48;100599.13;;;0.71;75.18
68988;BME280;56038;46.080;11.116;2022-12-18T01:12:50;100605.91;;;0.67;75.37
68988;BME280;56038;46.080;11.116;2022-12-18T01:17:52;100616.09;;;0.63;75.74
68988;BME280;56038;46.080;11.116;2022-12-18T01:22:55;100629.75;;;0.60;75.40
68988;BME280;56038;46.080;11.116;2022-12-18T01:27:57;100635.69;;;0.57;75.71
68988;BME280;56038;46.080;11.116;2022-12-18T01:32:59;100647.66;;;0.55;75.25
68988;BME280;56038;46.080;11.116;2022-12-18T01:38:02;100651.88;;;0.52;75.57
68988;BME280;56038;46.080;11.116;2022-12-18T01:43:03;100653.56;;;0.50;75.24
68988;BME280;56038;46.080;11.116;2022-12-18T01:48:06;100663.84;;;0.50;75.67
68988;BME280;56038;46.080;11.116;2022-12-18T01:53:14;100680.03;;;0.47;75.41
68988;BME280;56038;46.080;11.116;2022-12-18T01:58:18;100690.28;;;0.46;75.76
68988;BME280;56038;46.080;11.116;2022-12-18T02:03:20;100702.19;;;0.41;75.44
68988;BME280;56038;46.080;11.116;2022-12-18T02:08:29;100709.00;;;0.39;74.91
68988;BME280;56038;46.080;11.116;2022-12-18T02:13:40;100720.09;;;0.38;75.39
68988;BME280;56038;46.080;11.116;2022-12-18T02:18:48;100705.44;;;0.32;75.27
68988;BME280;56038;46.080;11.116;2022-12-18T02:24:01;100715.72;;;0.32;75.29
68988;BME280;56038;46.080;11.116;2022-12-18T02:29:14;100713.06;;;0.30;74.93
68988;BME280;56038;46.080;11.116;2022-12-18T02:34:17;100713.06;;;0.30;74.88
68988;BME280;56038;46.080;11.116;2022-12-18T02:39:21;100730.97;;;0.26;75.00
68988;BME280;56038;46.080;11.116;2022-12-18T02:44:26;100739.50;;;0.25;75.29
68988;BME280;56038;46.080;11.116;2022-12-18T02:49:34;100738.72;;;0.29;75.29
68988;BME280;56038;46.080;11.116;2022-12-18T02:54:46;100743.03;;;0.30;75.22
68988;BME280;56038;46.080;11.116;2022-12-18T02:59:58;100755.91;;;0.32;74.77
68988;BME280;56038;46.080;11.116;2022-12-18T03:05:09;100751.59;;;0.29;75.21
68988;BME280;56038;46.080;11.116;2022-12-18T03:10:15;100754.06;;;0.24;74.68
68988;BME280;56038;46.080;11.116;2022-12-18T03:15:23;100756.53;;;0.20;74.96
68988;BME280;56038;46.080;11.116;2022-12-18T03:20:27;100757.34;;;0.19;74.79
68988;BME280;56038;46.080;11.116;2022-12-18T03:25:33;100754.75;;;0.17;74.77
68988;BME280;56038;46.080;11.116;2022-12-18T03:30:39;100763.19;;;0.13;74.96
68988;BME280;56038;46.080;11.116;2022-12-18T03:35:42;100775.06;;;0.08;74.83
68988;BME280;56038;46.080;11.116;2022-12-18T03:40:51;100769.00;;;0.05;74.84
68988;BME280;56038;46.080;11.116;2022-12-18T03:46:02;100767.06;;;-0.04;75.37
68988;BME280;56038;46.080;11.116;2022-12-18T03:51:07;100782.53;;;-0.01;74.70
68988;BME280;56038;46.080;11.116;2022-12-18T03:56:11;100782.53;;;-0.01;74.36
68988;BME280;56038;46.080;11.116;2022-12-18T04:01:17;100791.94;;;-0.02;74.67
68988;BME280;56038;46.080;11.116;2022-12-18T04:06:20;100792.78;;;-0.03;74.71
68988;BME280;56038;46.080;11.116;2022-12-18T04:11:22;100807.28;;;-0.05;74.98
68988;BME280;56038;46.080;11.116;2022-12-18T04:16:26;100813.31;;;-0.03;74.25
68988;BME280;56038;46.080;11.116;2022-12-18T04:21:28;100816.66;;;-0.07;74.33
68988;BME280;56038;46.080;11.116;2022-12-18T04:26:30;100829.41;;;-0.10;74.60
68988;BME280;56038;46.080;11.116;2022-12-18T04:31:33;100833.56;;;-0.15;74.92
68988;BME280;56038;46.080;11.116;2022-12-18T04:36:35;100843.72;;;-0.18;74.79
68988;BME280;56038;46.080;11.116;2022-12-18T04:41:37;100854.00;;;-0.18;74.61
68988;BME280;56038;46.080;11.116;2022-12-18T04:46:40;100857.41;;;-0.19;74.78
68988;BME280;56038;46.080;11.116;2022-12-18T04:51:42;100864.25;;;-0.19;74.38
68988;BME280;56038;46.080;11.116;2022-12-18T04:56:43;100876.28;;;-0.17;74.52
68988;BME280;56038;46.080;11.116;2022-12-18T05:01:47;100881.38;;;-0.18;74.30
68988;BME280;56038;46.080;11.116;2022-12-18T05:06:48;100866.84;;;-0.18;74.37
68988;BME280;56038;46.080;11.116;2022-12-18T05:11:50;100878.75;;;-0.21;74.52
68988;BME280;56038;46.080;11.116;2022-12-18T05:16:53;100893.22;;;-0.23;74.65
68988;BME280;56038;46.080;11.116;2022-12-18T05:21:55;100893.19;;;-0.25;74.66
68988;BME280;56038;46.080;11.116;2022-12-18T05:26:57;100899.16;;;-0.26;74.17
68988;BME280;56038;46.080;11.116;2022-12-18T05:32:00;100899.03;;;-0.31;74.58
68988;BME280;56038;46.080;11.116;2022-12-18T05:37:02;100904.03;;;-0.35;74.29
68988;BME280;56038;46.080;11.116;2022-12-18T05:42:04;100903.94;;;-0.38;74.27
68988;BME280;56038;46.080;11.116;2022-12-18T05:47:07;100914.16;;;-0.40;74.29
68988;BME280;56038;46.080;11.116;2022-12-18T05:52:09;100926.97;;;-0.41;74.75
68988;BME280;56038;46.080;11.116;2022-12-18T05:57:11;100942.19;;;-0.47;74.80
68988;BME280;56038;46.080;11.116;2022-12-18T06:02:14;100948.03;;;-0.51;74.82
68988;BME280;56038;46.080;11.116;2022-12-18T06:07:16;100953.09;;;-0.54;74.95
68988;BME280;56038;46.080;11.116;2022-12-18T06:12:17;100954.81;;;-0.53;74.79
68988;BME280;56038;46.080;11.116;2022-12-18T06:17:21;100962.59;;;-0.50;74.84
68988;BME280;56038;46.080;11.116;2022-12-18T06:22:22;100972.06;;;-0.49;74.25
68988;BME280;56038;46.080;11.116;2022-12-18T06:27:25;100982.34;;;-0.48;74.28
68988;BME280;56038;46.080;11.116;2022-12-18T06:32:28;100984.06;;;-0.48;74.12
68988;BME280;56038;46.080;11.116;2022-12-18T06:37:30;100987.41;;;-0.51;73.92
68988;BME280;56038;46.080;11.116;2022-12-18T06:42:32;100994.28;;;-0.50;73.90
68988;BME280;56038;46.080;11.116;2022-12-18T06:47:35;101001.06;;;-0.52;73.87
68988;BME280;56038;46.080;11.116;2022-12-18T06:52:37;101005.25;;;-0.55;73.94
68988;BME280;56038;46.080;11.116;2022-12-18T06:57:39;101002.50;;;-0.62;73.70
68988;BME280;56038;46.080;11.116;2022-12-18T07:02:42;101006.69;;;-0.64;74.27
68988;BME280;56038;46.080;11.116;2022-12-18T07:07:44;101012.63;;;-0.65;74.31
68988;BME280;56038;46.080;11.116;2022-12-18T07:12:45;101018.56;;;-0.67;74.44
68988;BME280;56038;46.080;11.116;2022-12-18T07:17:49;101029.59;;;-0.70;74.38
68988;BME280;56038;46.080;11.116;2022-12-18T07:22:50;101042.38;;;-0.71;74.22
68988;BME280;56038;46.080;11.116;2022-12-18T07:27:52;101044.06;;;-0.72;74.03
68988;BME280;56038;46.080;11.116;2022-12-18T07:32:55;101045.81;;;-0.71;74.27
68988;BME280;56038;46.080;11.116;2022-12-18T07:37:57;101060.56;;;-0.64;74.18
68988;BME280;56038;46.080;11.116;2022-12-18T07:42:58;101074.22;;;-0.65;74.19
68988;BME280;56038;46.080;11.116;2022-12-18T07:48:02;101080.09;;;-0.69;73.93
68988;BME280;56038;46.080;11.116;2022-12-18T07:53:04;101087.78;;;-0.69;73.99
68988;BME280;56038;46.080;11.116;2022-12-18T07:58:05;101097.22;;;-0.68;74.07
68988;BME280;56038;46.080;11.116;2022-12-18T08:03:08;101098.88;;;-0.70;74.04
68988;BME280;56038;46.080;11.116;2022-12-18T08:08:17;101104.09;;;-0.67;74.70
68988;BME280;56038;46.080;11.116;2022-12-18T08:13:20;101110.09;;;-0.66;74.89
68988;BME280;56038;46.080;11.116;2022-12-18T08:18:23;101120.41;;;-0.65;74.77
68988;BME280;56038;46.080;11.116;2022-12-18T08:23:25;101131.66;;;-0.61;74.81
68988;BME280;56038;46.080;11.116;2022-12-18T08:28:27;101134.38;;;-0.56;74.31
68988;BME280;56038;46.080;11.116;2022-12-18T08:33:30;101137.91;;;-0.53;74.29
68988;BME280;56038;46.080;11.116;2022-12-18T08:38:32;101146.06;;;-0.39;73.66
68988;BME280;56038;46.080;11.116;2022-12-18T08:43:34;101143.47;;;0.15;72.94
68988;BME280;56038;46.080;11.116;2022-12-18T08:48:55;101147.88;;;1.09;69.86
68988;BME280;56038;46.080;11.116;2022-12-18T08:53:57;101147.53;;;1.61;67.73
68988;BME280;56038;46.080;11.116;2022-12-18T08:58:59;101153.34;;;2.26;66.57
68988;BME280;56038;46.080;11.116;2022-12-18T09:04:02;101146.00;;;2.85;64.00
68988;BME280;56038;46.080;11.116;2022-12-18T09:09:04;101157.84;;;3.21;62.48
68988;BME280;56038;46.080;11.116;2022-12-18T09:14:06;101157.81;;;3.69;61.14
68988;BME280;56038;46.080;11.116;2022-12-18T09:19:12;101159.06;;;3.92;59.64
68988;BME280;56038;46.080;11.116;2022-12-18T09:24:15;101164.63;;;4.18;58.40
68988;BME280;56038;46.080;11.116;2022-12-18T09:29:17;101162.41;;;4.43;58.00
68988;BME280;56038;46.080;11.116;2022-12-18T09:34:20;101155.34;;;4.33;58.65
68988;BME280;56038;46.080;11.116;2022-12-18T09:39:22;101151.28;;;5.27;57.04
68988;BME280;56038;46.080;11.116;2022-12-18T09:44:26;101151.22;;;6.23;53.85
68988;BME280;56038;46.080;11.116;2022-12-18T09:49:31;101144.63;;;6.89;53.36
68988;BME280;56038;46.080;11.116;2022-12-18T09:54:38;101134.34;;;7.44;50.56
68988;BME280;56038;46.080;11.116;2022-12-18T09:59:42;101114.28;;;8.53;49.35
68988;BME280;56038;46.080;11.116;2022-12-18T10:04:56;101112.22;;;9.11;45.32
68988;BME280;56038;46.080;11.116;2022-12-18T10:10:07;101119.59;;;9.74;42.08
68988;BME280;56038;46.080;11.116;2022-12-18T10:15:15;101118.53;;;9.93;42.88
68988;BME280;56038;46.080;11.116;2022-12-18T10:20:26;101119.16;;;10.21;41.49
68988;BME280;56038;46.080;11.116;2022-12-18T10:25:34;101115.25;;;10.57;39.98
68988;BME280;56038;46.080;11.116;2022-12-18T10:30:41;101101.19;;;10.69;39.50
68988;BME280;56038;46.080;11.116;2022-12-18T10:35:45;101103.03;;;10.62;39.55
68988;BME280;56038;46.080;11.116;2022-12-18T10:40:49;101086.59;;;11.14;38.48
68988;BME280;56038;46.080;11.116;2022-12-18T10:46:04;101087.34;;;10.62;40.10
68988;BME280;56038;46.080;11.116;2022-12-18T10:51:08;101078.91;;;11.03;37.75
68988;BME280;56038;46.080;11.116;2022-12-18T10:56:10;101072.28;;;10.81;38.79
68988;BME280;56038;46.080;11.116;2022-12-18T11:01:13;101078.25;;;10.91;37.51
68988;BME280;56038;46.080;11.116;2022-12-18T11:06:18;101075.22;;;10.55;39.96
68988;BME280;56038;46.080;11.116;2022-12-18T11:11:23;101066.78;;;10.33;40.69
68988;BME280;56038;46.080;11.116;2022-12-18T11:16:26;101060.13;;;10.78;38.66
68988;BME280;56038;46.080;11.116;2022-12-18T11:21:29;101064.59;;;10.69;38.39
68988;BME280;56038;46.080;11.116;2022-12-18T11:26:34;101068.44;;;11.03;38.03
68988;BME280;56038;46.080;11.116;2022-12-18T11:31:36;101067.25;;;10.66;38.14
68988;BME280;56038;46.080;11.116;2022-12-18T11:36:43;101053.56;;;11.10;37.94
68988;BME280;56038;46.080;11.116;2022-12-18T11:41:50;101046.41;;;10.61;38.02
68988;BME280;56038;46.080;11.116;2022-12-18T11:47:18;101037.66;;;11.22;37.38
68988;BME280;56038;46.080;11.116;2022-12-18T11:52:27;101038.13;;;10.93;37.97
68988;BME280;56038;46.080;11.116;2022-12-18T11:57:36;101036.56;;;11.35;36.06
68988;BME280;56038;46.080;11.116;2022-12-18T12:08:19;101033.94;;;11.88;35.38
68988;BME280;56038;46.080;11.116;2022-12-18T12:13:33;101031.09;;;12.00;34.79
68988;BME280;56038;46.080;11.116;2022-12-18T12:18:56;101019.16;;;11.85;36.05
68988;BME280;56038;46.080;11.116;2022-12-18T12:24:16;101017.16;;;11.49;36.52
68988;BME280;56038;46.080;11.116;2022-12-18T12:29:33;101013.16;;;11.79;35.34
68988;BME280;56038;46.080;11.116;2022-12-18T12:34:48;101008.31;;;12.04;34.02
68988;BME280;56038;46.080;11.116;2022-12-18T12:39:58;101013.44;;;12.08;34.26
68988;BME280;56038;46.080;11.116;2022-12-18T12:45:05;101022.53;;;11.41;35.51
68988;BME280;56038;46.080;11.116;2022-12-18T12:50:14;101014.47;;;10.99;36.22
68988;BME280;56038;46.080;11.116;2022-12-18T12:55:21;101014.66;;;10.87;37.21
68988;BME280;56038;46.080;11.116;2022-12-18T13:00:24;101013.34;;;10.57;36.43
68988;BME280;56038;46.080;11.116;2022-12-18T13:05:33;101010.41;;;10.15;36.59
68988;BME280;56038;46.080;11.116;2022-12-18T13:10:38;101015.06;;;9.87;37.54
68988;BME280;56038;46.080;11.116;2022-12-18T13:15:42;101006.59;;;9.66;37.58
68988;BME280;56038;46.080;11.116;2022-12-18T13:20:46;101000.88;;;9.27;38.78
68988;BME280;56038;46.080;11.116;2022-12-18T13:25:50;100986.47;;;8.79;41.64
68988;BME280;56038;46.080;11.116;2022-12-18T13:30:55;100987.63;;;8.27;41.73
68988;BME280;56038;46.080;11.116;2022-12-18T13:36:01;100992.97;;;7.97;42.46
68988;BME280;56038;46.080;11.116;2022-12-18T13:41:22;100994.78;;;7.63;42.64
68988;BME280;56038;46.080;11.116;2022-12-18T13:46:26;100998.28;;;7.22;42.93
68988;BME280;56038;46.080;11.116;2022-12-18T13:51:32;100988.78;;;7.00;43.76
68988;BME280;56038;46.080;11.116;2022-12-18T13:56:44;101000.88;;;6.78;44.60
68988;BME280;56038;46.080;11.116;2022-12-18T14:01:56;100989.63;;;6.68;44.48
68988;BME280;56038;46.080;11.116;2022-12-18T14:07:03;100988.72;;;6.48;45.47
68988;BME280;56038;46.080;11.116;2022-12-18T14:12:14;100986.91;;;6.24;46.34
68988;BME280;56038;46.080;11.116;2022-12-18T14:17:36;100992.03;;;6.12;45.95
68988;BME280;56038;46.080;11.116;2022-12-18T14:22:37;100997.97;;;5.86;45.59
68988;BME280;56038;46.080;11.116;2022-12-18T14:27:48;101002.22;;;5.75;47.66
68988;BME280;56038;46.080;11.116;2022-12-18T14:33:00;101002.19;;;5.69;47.30
68988;BME280;56038;46.080;11.116;2022-12-18T14:38:27;100997.78;;;5.56;47.78
68988;BME280;56038;46.080;11.116;2022-12-18T14:43:32;100997.72;;;5.47;48.88
68988;BME280;56038;46.080;11.116;2022-12-18T14:48:37;101007.13;;;5.35;49.40
68988;BME280;56038;46.080;11.116;2022-12-18T14:53:42;101007.09;;;5.29;49.33
68988;BME280;56038;46.080;11.116;2022-12-18T14:58:47;101016.56;;;5.23;49.77
68988;BME280;56038;46.080;11.116;2022-12-18T15:03:51;101020.78;;;5.16;50.15
68988;BME280;56038;46.080;11.116;2022-12-18T15:08:53;101023.31;;;5.07;50.88
68988;BME280;56038;46.080;11.116;2022-12-18T15:13:57;101015.47;;;4.98;50.10
68988;BME280;56038;46.080;11.116;2022-12-18T15:19:00;101027.44;;;4.88;50.95
68988;BME280;56038;46.080;11.116;2022-12-18T15:24:02;101022.22;;;4.80;51.29
68988;BME280;56038;46.080;11.116;2022-12-18T15:29:18;101022.94;;;4.67;51.61
68988;BME280;56038;46.080;11.116;2022-12-18T15:34:21;101032.28;;;4.56;52.12
68988;BME280;56038;46.080;11.116;2022-12-18T15:39:23;101048.56;;;4.44;51.74
68988;BME280;56038;46.080;11.116;2022-12-18T15:44:27;101063.03;;;4.29;53.02
68988;BME280;56038;46.080;11.116;2022-12-18T15:49:30;101049.09;;;4.19;53.28
68988;BME280;56038;46.080;11.116;2022-12-18T15:54:32;101049.91;;;4.13;53.57
68988;BME280;56038;46.080;11.116;2022-12-18T15:59:53;101054.09;;;4.04;54.35
68988;BME280;56038;46.080;11.116;2022-12-18T16:04:58;101053.94;;;3.93;54.70
68988;BME280;56038;46.080;11.116;2022-12-18T16:09:59;101053.81;;;3.84;55.28
68988;BME280;56038;46.080;11.116;2022-12-18T16:15:04;101070.91;;;3.76;55.98
68988;BME280;56038;46.080;11.116;2022-12-18T16:20:08;101075.06;;;3.65;56.24
68988;BME280;56038;46.080;11.116;2022-12-18T16:25:18;101082.63;;;3.52;56.86
68988;BME280;56038;46.080;11.116;2022-12-18T17:54:58;101147.66;;;2.03;62.79
68988;BME280;56038;46.080;11.116;2022-12-18T18:00:00;101152.66;;;1.96;62.62
68988;BME280;56038;46.080;11.116;2022-12-18T18:05:02;101163.50;;;1.83;62.98
68988;BME280;56038;46.080;11.116;2022-12-18T18:10:20;101161.63;;;1.75;63.15
68988;BME280;56038;46.080;11.116;2022-12-18T18:15:22;101171.81;;;1.72;63.29
68988;BME280;56038;46.080;11.116;2022-12-18T18:20:24;101170.00;;;1.68;63.28
68988;BME280;56038;46.080;11.116;2022-12-18T18:25:36;101171.50;;;1.59;64.54
68988;BME280;56038;46.080;11.116;2022-12-18T18:30:41;101176.59;;;1.57;64.57
68988;BME280;56038;46.080;11.116;2022-12-18T18:35:43;101186.78;;;1.53;65.02
68988;BME280;56038;46.080;11.116;2022-12-18T18:40:46;101186.69;;;1.48;64.51
68988;BME280;56038;46.080;11.116;2022-12-18T19:08:16;101186.00;;;1.22;66.35
68988;BME280;56038;46.080;11.116;2022-12-18T19:31:31;101200.81;;;0.99;67.19
68988;BME280;56038;46.080;11.116;2022-12-18T19:36:40;101203.16;;;0.92;67.09
68988;BME280;56038;46.080;11.116;2022-12-18T19:41:46;101204.78;;;0.88;67.31
68988;BME280;56038;46.080;11.116;2022-12-18T19:47:03;101202.88;;;0.81;67.44
68988;BME280;56038;46.080;11.116;2022-12-18T19:52:04;101203.53;;;0.75;67.26
68988;BME280;56038;46.080;11.116;2022-12-18T19:57:35;101205.16;;;0.72;67.36
68988;BME280;56038;46.080;11.116;2022-12-18T20:02:38;101213.63;;;0.68;67.15
68988;BME280;56038;46.080;11.116;2022-12-18T20:07:40;101213.47;;;0.63;67.06
68988;BME280;56038;46.080;11.116;2022-12-18T20:12:42;101202.22;;;0.59;67.01
68988;BME280;56038;46.080;11.116;2022-12-18T20:17:45;101203.84;;;0.56;66.79
68988;BME280;56038;46.080;11.116;2022-12-18T20:22:47;101207.94;;;0.49;67.18
68988;BME280;56038;46.080;11.116;2022-12-18T20:27:49;101210.47;;;0.48;67.09
68988;BME280;56038;46.080;11.116;2022-12-18T20:32:52;101221.63;;;0.48;66.60
68988;BME280;56038;46.080;11.116;2022-12-18T20:37:54;101219.69;;;0.41;67.25
68988;BME280;56038;46.080;11.116;2022-12-18T20:42:56;101219.59;;;0.38;67.28
68988;BME280;56038;46.080;11.116;2022-12-18T20:47:59;101222.78;;;0.31;67.59
68988;BME280;56038;46.080;11.116;2022-12-18T20:53:02;101229.63;;;0.30;67.94
68988;BME280;56038;46.080;11.116;2022-12-18T20:58:04;101236.38;;;0.27;68.66
68988;BME280;56038;46.080;11.116;2022-12-18T21:03:08;101239.66;;;0.23;68.99
68988;BME280;56038;46.080;11.116;2022-12-18T21:13:54;101249.56;;;0.11;69.64
68988;BME280;56038;46.080;11.116;2022-12-18T21:18:57;101256.34;;;0.09;69.21
68988;BME280;56038;46.080;11.116;2022-12-18T21:23:59;101258.03;;;0.08;70.03
68988;BME280;56038;46.080;11.116;2022-12-18T21:29:03;101269.00;;;0.03;68.96
68988;BME280;56038;46.080;11.116;2022-12-18T21:34:09;101267.22;;;0.00;69.09
68988;BME280;56038;46.080;11.116;2022-12-18T21:39:17;101262.06;;;0.00;69.25
68988;BME280;56038;46.080;11.116;2022-12-18T21:44:31;101254.19;;;-0.05;69.13
68988;BME280;56038;46.080;11.116;2022-12-18T21:49:34;101273.78;;;-0.08;69.36
68988;BME280;56038;46.080;11.116;2022-12-18T21:54:36;101274.50;;;-0.12;69.28
68988;BME280;56038;46.080;11.116;2022-12-18T21:59:39;101274.41;;;-0.15;69.76
68988;BME280;56038;46.080;11.116;2022-12-18T22:04:43;101258.91;;;-0.17;69.69
68988;BME280;56038;46.080;11.116;2022-12-18T22:09:45;101264.78;;;-0.21;69.53
68988;BME280;56038;46.080;11.116;2022-12-18T22:14:47;101244.91;;;-0.26;69.54
68988;BME280;56038;46.080;11.116;2022-12-18T22:19:52;101248.34;;;-0.26;70.01
68988;BME280;56038;46.080;11.116;2022-12-18T22:24:54;101246.72;;;-0.24;70.04
68988;BME280;56038;46.080;11.116;2022-12-18T22:29:56;101253.59;;;-0.23;70.58
68988;BME280;56038;46.080;11.116;2022-12-18T22:35:09;101251.88;;;-0.22;70.50
68988;BME280;56038;46.080;11.116;2022-12-18T22:40:16;101256.25;;;-0.20;70.44
68988;BME280;56038;46.080;11.116;2022-12-18T22:45:23;101253.78;;;-0.17;70.45
68988;BME280;56038;46.080;11.116;2022-12-18T22:50:34;101239.31;;;-0.15;70.54
68988;BME280;56038;46.080;11.116;2022-12-18T22:55:35;101248.88;;;-0.11;70.74
68988;BME280;56038;46.080;11.116;2022-12-18T23:00:37;101243.50;;;-0.17;70.66
68988;BME280;56038;46.080;11.116;2022-12-18T23:05:42;101249.50;;;-0.16;70.54
68988;BME280;56038;46.080;11.116;2022-12-18T23:10:44;101239.25;;;-0.16;70.70
68988;BME280;56038;46.080;11.116;2022-12-18T23:15:46;101257.34;;;-0.13;70.58
68988;BME280;56038;46.080;11.116;2022-12-18T23:20:49;101254.19;;;-0.05;70.70
68988;BME280;56038;46.080;11.116;2022-12-18T23:25:59;101249.06;;;-0.05;70.41
68988;BME280;56038;46.080;11.116;2022-12-18T23:31:03;101236.25;;;-0.03;70.93
68988;BME280;56038;46.080;11.116;2022-12-18T23:36:06;101231.91;;;-0.06;70.75
68988;BME280;56038;46.080;11.116;2022-12-18T23:41:12;101237.00;;;-0.07;70.90
68988;BME280;56038;46.080;11.116;2022-12-18T23:46:18;101246.56;;;-0.02;71.01
68988;BME280;56038;46.080;11.116;2022-12-18T23:51:22;101238.13;;;0.01;71.13
68988;BME280;56038;46.080;11.116;2022-12-18T23:56:26;101249.28;;;0.02;70.80
